createdAt,value
2022-11-07T00:02:14.058Z,89.69
2022-11-07T00:04:43.188Z,90.48
2022-11-07T00:07:11.826Z,91.89
2022-11-07T00:09:41.416Z,92.31
2022-11-07T00:12:09.729Z,93.27
2022-11-07T00:14:37.934Z,93.44
2022-11-07T00:17:06.436Z,94.20
2022-11-07T00:19:34.669Z,95.65
2022-11-07T00:22:02.907Z,95.56
2022-11-07T00:24:31.241Z,96.82
2022-11-07T00:27:00.826Z,97.76
2022-11-07T00:29:29.051Z,98.23
2022-11-07T00:31:59.016Z,99.21
2022-11-07T00:34:27.207Z,100.00
2022-11-07T00:36:55.474Z,100.00
2022-11-07T00:39:23.701Z,100.00
2022-11-07T00:41:51.949Z,100.00
2022-11-07T00:44:21.607Z,100.00
2022-11-07T00:46:49.847Z,100.00
2022-11-07T00:49:18.143Z,100.00
2022-11-07T00:51:46.383Z,100.00
2022-11-07T00:54:14.653Z,100.00
2022-11-07T00:56:42.875Z,100.00
2022-11-07T00:59:11.109Z,100.00
2022-11-07T01:01:41.393Z,100.00
2022-11-07T01:04:31.932Z,100.00
2022-11-07T01:07:00.892Z,100.00
2022-11-07T01:09:29.118Z,100.00
2022-11-07T01:11:57.375Z,100.00
2022-11-07T01:14:26.479Z,100.00
2022-11-07T01:16:56.124Z,100.00
2022-11-07T01:19:24.423Z,100.00
2022-11-07T01:21:53.023Z,100.00
2022-11-07T01:24:23.094Z,100.00
2022-11-07T01:26:51.906Z,100.00
2022-11-07T01:29:21.343Z,100.00
2022-11-07T01:31:50.065Z,100.00
2022-11-07T01:34:19.695Z,100.00
2022-11-07T01:36:48.150Z,100.00
2022-11-07T01:39:16.392Z,100.00
2022-11-07T01:41:44.684Z,100.00
2022-11-07T01:44:52.624Z,100.00
2022-11-07T01:47:21.673Z,100.00
2022-11-07T01:49:52.643Z,100.00
2022-11-07T01:52:28.123Z,100.00
2022-11-07T01:55:03.017Z,100.00
2022-11-07T01:57:37.085Z,100.00
2022-11-07T02:00:10.080Z,100.00
2022-11-07T02:02:39.300Z,100.00
2022-11-07T02:05:10.940Z,100.00
2022-11-07T02:07:40.431Z,100.00
2022-11-07T02:10:10.025Z,100.00
2022-11-07T02:12:38.752Z,100.00
2022-11-07T02:15:11.209Z,100.00
2022-11-07T02:17:39.501Z,100.00
2022-11-07T02:20:11.180Z,100.00
2022-11-07T02:22:47.667Z,100.00
2022-11-07T02:25:19.958Z,100.00
2022-11-07T02:27:50.851Z,100.00
2022-11-07T02:30:23.958Z,100.00
2022-11-07T02:32:52.196Z,100.00
2022-11-07T02:35:42.059Z,100.00
2022-11-07T02:38:15.362Z,100.00
2022-11-07T02:40:47.037Z,100.00
2022-11-07T02:43:18.279Z,100.00
2022-11-07T02:45:49.083Z,100.00
2022-11-07T02:48:17.691Z,100.00
2022-11-07T02:50:46.802Z,100.00
2022-11-07T02:53:15.319Z,100.00
2022-11-07T02:55:45.061Z,100.00
2022-11-07T02:58:13.456Z,100.00
2022-11-07T03:00:41.731Z,100.00
2022-11-07T03:03:16.240Z,100.00
2022-11-07T03:05:44.828Z,100.00
2022-11-07T03:08:13.017Z,100.00
2022-11-07T03:10:41.267Z,100.00
2022-11-07T03:13:10.976Z,100.00
2022-11-07T03:15:39.189Z,100.00
2022-11-07T03:18:07.665Z,100.00
2022-11-07T03:20:35.940Z,100.00
2022-11-07T03:23:04.292Z,100.00
2022-11-07T03:25:32.620Z,100.00
2022-11-07T03:28:00.877Z,100.00
2022-11-07T03:30:30.536Z,100.00
2022-11-07T03:32:58.906Z,100.00
2022-11-07T03:35:28.092Z,100.00
2022-11-07T03:37:56.318Z,100.00
2022-11-07T03:40:24.506Z,100.00
2022-11-07T03:42:52.769Z,100.00
2022-11-07T03:45:21.122Z,100.00
2022-11-07T03:47:50.733Z,100.00
2022-11-07T03:50:21.853Z,100.00
2022-11-07T03:52:50.680Z,100.00
2022-11-07T03:55:19.168Z,100.00
2022-11-07T03:57:48.263Z,100.00
2022-11-07T04:00:18.633Z,100.00
2022-11-07T04:02:47.017Z,100.00
2022-11-07T04:05:16.890Z,100.00
2022-11-07T04:07:45.146Z,100.00
2022-11-07T04:10:13.390Z,100.00
2022-11-07T04:12:59.348Z,100.00
2022-11-07T04:15:45.491Z,100.00
2022-11-07T04:18:13.790Z,100.00
2022-11-07T04:20:43.459Z,100.00
2022-11-07T04:23:11.868Z,100.00
2022-11-07T04:25:57.986Z,100.00
2022-11-07T04:28:26.282Z,100.00
2022-11-07T04:30:54.563Z,100.00
2022-11-07T04:33:22.924Z,100.00
2022-11-07T04:35:52.580Z,100.00
2022-11-07T04:38:20.889Z,100.00
2022-11-07T04:40:55.369Z,100.00
2022-11-07T04:43:23.871Z,100.00
2022-11-07T04:45:57.265Z,100.00
2022-11-07T04:48:26.157Z,100.00
2022-11-07T04:50:55.812Z,100.00
2022-11-07T04:53:24.071Z,100.00
2022-11-07T04:55:52.297Z,100.00
2022-11-07T04:58:20.584Z,100.00
2022-11-07T05:00:48.842Z,100.00
2022-11-07T05:03:17.432Z,100.00
2022-11-07T05:05:46.378Z,100.00
2022-11-07T05:08:15.964Z,100.00
2022-11-07T05:10:44.199Z,100.00
2022-11-07T05:13:12.787Z,100.00
2022-11-07T05:15:41.696Z,100.00
2022-11-07T05:18:11.412Z,100.00
2022-11-07T05:20:40.995Z,100.00
2022-11-07T05:23:13.534Z,100.00
2022-11-07T05:25:47.388Z,100.00
2022-11-07T05:28:22.104Z,100.00
2022-11-07T05:30:54.284Z,100.00
2022-11-07T05:33:24.004Z,100.00
2022-11-07T05:35:52.256Z,100.00
2022-11-07T05:38:20.668Z,100.00
2022-11-07T05:40:50.238Z,100.00
2022-11-07T05:43:18.595Z,100.00
2022-11-07T05:45:46.894Z,100.00
2022-11-07T05:48:15.397Z,100.00
2022-11-07T05:50:43.647Z,100.00
2022-11-07T05:53:12.097Z,100.00
2022-11-07T05:55:40.612Z,100.00
2022-11-07T05:58:13.552Z,100.00
2022-11-07T06:00:44.300Z,100.00
2022-11-07T06:03:14.266Z,100.00
2022-11-07T06:05:44.383Z,100.00
2022-11-07T06:08:14.746Z,100.00
2022-11-07T06:10:44.192Z,100.00
2022-11-07T06:13:16.538Z,100.00
2022-11-07T06:15:46.632Z,100.00
2022-11-07T06:18:17.701Z,100.00
2022-11-07T06:20:46.587Z,100.00
2022-11-07T06:23:15.652Z,100.00
2022-11-07T06:25:45.016Z,100.00
2022-11-07T06:28:15.835Z,100.00
2022-11-07T06:30:44.560Z,100.00
2022-11-07T06:33:17.079Z,100.00
2022-11-07T06:35:46.481Z,100.00
2022-11-07T06:38:15.740Z,100.00
2022-11-07T06:40:44.813Z,100.00
2022-11-07T06:43:18.105Z,100.00
2022-11-07T06:45:49.167Z,100.00
2022-11-07T06:48:17.550Z,100.00
2022-11-07T06:50:45.779Z,100.00
2022-11-07T06:53:15.351Z,100.00
2022-11-07T06:55:43.940Z,100.00
2022-11-07T06:58:12.215Z,100.00
2022-11-07T07:00:42.343Z,100.00
2022-11-07T07:03:12.577Z,100.00
2022-11-07T07:05:41.005Z,100.00
2022-11-07T07:08:11.881Z,100.00
2022-11-07T07:10:44.660Z,100.00
2022-11-07T07:13:14.471Z,100.00
2022-11-07T07:15:51.603Z,100.00
2022-11-07T07:18:20.746Z,100.00
2022-11-07T07:20:49.311Z,100.00
2022-11-07T07:23:18.355Z,100.00
2022-11-07T07:25:47.328Z,100.00
2022-11-07T07:28:15.589Z,100.00
2022-11-07T07:30:51.332Z,100.00
2022-11-07T07:33:19.905Z,100.00
2022-11-07T07:35:48.216Z,100.00
2022-11-07T07:38:16.456Z,100.00
2022-11-07T07:40:44.681Z,100.00
2022-11-07T07:43:13.155Z,100.00
2022-11-07T07:45:41.581Z,100.00
2022-11-07T07:48:11.254Z,100.00
2022-11-07T07:50:39.488Z,100.00
2022-11-07T07:53:09.261Z,100.00
2022-11-07T07:55:37.780Z,100.00
2022-11-07T07:58:06.180Z,100.00
2022-11-07T08:00:35.240Z,100.00
2022-11-07T08:03:04.781Z,100.00
2022-11-07T08:05:34.599Z,100.00
2022-11-07T08:08:02.862Z,100.00
2022-11-07T08:10:46.921Z,100.00
2022-11-07T08:13:15.482Z,100.00
2022-11-07T08:15:43.917Z,100.00
2022-11-07T08:18:12.152Z,100.00
2022-11-07T08:20:41.746Z,100.00
2022-11-07T08:23:16.330Z,100.00
2022-11-07T08:25:51.086Z,100.00
2022-11-07T08:28:20.717Z,100.00
2022-11-07T08:30:57.244Z,100.00
2022-11-07T08:33:26.768Z,100.00
2022-11-07T08:35:57.758Z,100.00
2022-11-07T08:38:26.087Z,100.00
2022-11-07T08:40:54.860Z,100.00
2022-11-07T08:43:23.562Z,99.81
2022-11-07T08:45:53.253Z,99.50
2022-11-07T08:48:22.959Z,99.40
2022-11-07T08:50:53.966Z,98.91
2022-11-07T08:53:24.586Z,98.27
2022-11-07T08:55:53.232Z,98.10
2022-11-07T08:58:24.736Z,98.12
2022-11-07T09:00:57.158Z,98.42
2022-11-07T09:06:13.839Z,95.13
2022-11-07T09:08:43.476Z,96.32
2022-11-07T09:11:11.782Z,95.50
2022-11-07T09:13:40.310Z,94.56
2022-11-07T09:16:09.229Z,94.72
2022-11-07T09:18:37.451Z,95.09
2022-11-07T09:21:06.052Z,93.42
2022-11-07T09:23:34.284Z,93.20
2022-11-07T09:26:04.135Z,92.81
2022-11-07T09:28:32.403Z,91.57
2022-11-07T09:31:03.222Z,91.05
2022-11-07T09:33:32.352Z,92.13
2022-11-07T09:36:01.774Z,92.27
2022-11-07T09:38:30.675Z,90.36
2022-11-07T09:41:07.225Z,89.79
2022-11-07T09:43:59.426Z,89.24
2022-11-07T09:46:43.138Z,88.73
2022-11-07T09:49:17.963Z,88.97
2022-11-07T09:51:51.516Z,88.70
2022-11-07T09:54:26.096Z,86.96
2022-11-07T09:56:58.607Z,86.90
2022-11-07T09:59:32.850Z,85.54
2022-11-07T10:02:01.313Z,86.62
2022-11-07T10:04:29.650Z,86.58
2022-11-07T10:07:03.349Z,85.80
2022-11-07T10:09:41.740Z,85.88
2022-11-07T10:12:25.295Z,86.01
2022-11-07T10:15:05.088Z,86.09
2022-11-07T10:17:45.724Z,86.33
2022-11-07T10:20:30.623Z,86.34
2022-11-07T10:23:14.403Z,86.18
2022-11-07T10:25:50.331Z,86.03
2022-11-07T10:28:22.180Z,85.95
2022-11-07T10:30:52.770Z,86.46
2022-11-07T10:33:39.870Z,86.05
2022-11-07T10:36:18.996Z,86.22
2022-11-07T10:38:47.288Z,86.35
2022-11-07T10:41:18.040Z,86.10
2022-11-07T10:43:53.080Z,86.44
2022-11-07T10:46:26.464Z,86.49
2022-11-07T10:48:57.440Z,85.39
2022-11-07T10:51:41.887Z,84.85
2022-11-07T10:54:22.501Z,85.15
2022-11-07T10:56:58.245Z,84.19
2022-11-07T10:59:35.579Z,83.96
2022-11-07T11:02:20.091Z,83.05
2022-11-07T11:04:51.549Z,82.30
2022-11-07T11:07:24.160Z,82.99
2022-11-07T11:09:58.292Z,80.62
2022-11-07T11:12:32.183Z,81.72
2022-11-07T11:15:14.265Z,80.01
2022-11-07T11:17:43.079Z,80.04
2022-11-07T11:20:31.922Z,78.94
2022-11-07T11:23:08.000Z,79.30
2022-11-07T11:25:46.472Z,79.07
2022-11-07T11:28:24.983Z,79.70
2022-11-07T11:31:00.642Z,79.42
2022-11-07T11:33:38.200Z,78.97
2022-11-07T11:36:12.489Z,78.92
2022-11-07T11:38:41.023Z,79.19
2022-11-07T11:41:19.844Z,77.68
2022-11-07T11:43:52.677Z,77.23
2022-11-07T11:46:30.568Z,77.32
2022-11-07T11:49:04.983Z,76.86
2022-11-07T11:51:40.647Z,78.16
2022-11-07T11:54:12.367Z,77.53
2022-11-07T11:56:53.647Z,76.99
2022-11-07T11:59:58.893Z,76.93
2022-11-07T12:02:51.378Z,77.08
2022-11-07T12:05:36.500Z,77.86
2022-11-07T12:08:22.192Z,77.43
2022-11-07T12:10:59.893Z,77.59
2022-11-07T12:13:38.166Z,77.60
2022-11-07T12:16:19.416Z,77.83
2022-11-07T12:18:57.295Z,78.00
2022-11-07T12:21:33.608Z,78.34
2022-11-07T12:24:20.397Z,78.50
2022-11-07T12:26:58.003Z,79.10
2022-11-07T12:29:48.970Z,78.68
2022-11-07T12:32:24.807Z,78.77
2022-11-07T12:35:13.057Z,79.45
2022-11-07T12:38:05.525Z,79.35
2022-11-07T12:40:49.040Z,79.08
2022-11-07T12:43:37.609Z,79.02
2022-11-07T12:46:16.581Z,79.17
2022-11-07T12:49:09.315Z,80.11
2022-11-07T12:51:51.384Z,79.36
2022-11-07T12:54:43.641Z,79.77
2022-11-07T12:57:20.052Z,79.64
2022-11-07T12:59:55.851Z,80.13
2022-11-07T13:02:38.917Z,80.61
2022-11-07T13:05:24.239Z,81.00
2022-11-07T13:08:00.387Z,80.88
2022-11-07T13:10:40.236Z,81.04
2022-11-07T13:13:17.439Z,81.65
2022-11-07T13:16:13.551Z,81.70
2022-11-07T13:18:34.424Z,82.40
2022-11-07T13:21:04.991Z,82.00
2022-11-07T13:23:34.851Z,81.79
2022-11-07T13:26:20.275Z,81.90
2022-11-07T13:28:59.875Z,82.38
2022-11-07T13:31:38.586Z,82.89
2022-11-07T13:34:25.570Z,82.31
2022-11-07T13:37:01.823Z,82.36
2022-11-07T13:39:32.016Z,82.04
2022-11-07T13:42:01.828Z,82.70
2022-11-07T13:44:36.869Z,82.18
2022-11-07T13:47:12.057Z,82.42
2022-11-07T13:49:45.048Z,82.08
2022-11-07T13:52:23.545Z,81.65
2022-11-07T13:54:58.420Z,82.06
2022-11-07T13:57:34.626Z,82.34
2022-11-07T14:00:10.982Z,81.62
2022-11-07T14:02:52.632Z,82.05
2022-11-07T14:05:24.811Z,82.04
2022-11-07T14:07:58.046Z,81.75
2022-11-07T14:10:33.054Z,82.26
2022-11-07T14:13:07.770Z,82.52
2022-11-07T14:15:37.434Z,81.72
2022-11-07T14:18:06.285Z,81.98
2022-11-07T14:20:34.584Z,82.86
2022-11-07T14:23:02.903Z,82.25
2022-11-07T14:25:35.428Z,81.80
2022-11-07T14:28:07.380Z,80.85
2022-11-07T14:30:41.645Z,80.44
2022-11-07T14:33:19.257Z,79.65
2022-11-07T14:35:51.192Z,80.03
2022-11-07T14:38:25.330Z,79.95
2022-11-07T14:40:57.168Z,79.67
2022-11-07T14:43:27.192Z,80.62
2022-11-07T14:46:14.319Z,80.50
2022-11-07T14:48:45.580Z,80.50
2022-11-07T14:51:18.322Z,80.78
2022-11-07T14:53:55.781Z,81.35
2022-11-07T14:56:31.805Z,81.81
2022-11-07T14:59:00.640Z,82.30
2022-11-07T15:01:31.841Z,82.87
2022-11-07T15:04:27.241Z,82.42
2022-11-07T15:07:11.914Z,82.88
2022-11-07T15:09:40.882Z,83.69
2022-11-07T15:12:19.311Z,83.45
2022-11-07T15:14:49.920Z,83.65
2022-11-07T15:17:24.803Z,83.48
2022-11-07T15:20:02.100Z,83.91
2022-11-07T15:22:36.385Z,84.21
2022-11-07T15:25:23.296Z,84.03
2022-11-07T15:27:53.061Z,84.70
2022-11-07T15:30:30.163Z,84.58
2022-11-07T15:32:58.822Z,84.61
2022-11-07T15:35:43.646Z,84.78
2022-11-07T15:38:19.759Z,85.22
2022-11-07T15:40:48.801Z,85.20
2022-11-07T15:43:18.618Z,85.78
2022-11-07T15:45:49.007Z,87.14
2022-11-07T15:48:20.263Z,87.01
2022-11-07T15:50:50.417Z,87.59
2022-11-07T15:53:24.506Z,87.77
2022-11-07T15:55:54.673Z,87.79
2022-11-07T15:58:26.414Z,88.07
2022-11-07T16:00:56.111Z,87.97
2022-11-07T16:03:26.675Z,87.61
2022-11-07T16:06:01.584Z,88.57
2022-11-07T16:08:31.146Z,88.75
2022-11-07T16:11:02.062Z,88.77
2022-11-07T16:13:31.694Z,88.91
2022-11-07T16:16:02.153Z,89.58
2022-11-07T16:18:37.864Z,89.59
2022-11-07T16:21:06.629Z,89.75
2022-11-07T16:23:35.733Z,89.18
2022-11-07T16:26:04.239Z,89.15
2022-11-07T16:28:36.183Z,89.54
2022-11-07T16:31:05.723Z,89.32
2022-11-07T16:33:35.180Z,90.36
2022-11-07T16:36:15.836Z,90.14
2022-11-07T16:38:48.164Z,89.89
2022-11-07T16:41:17.274Z,90.12
2022-11-07T16:43:48.343Z,90.86
2022-11-07T16:46:19.538Z,91.07
2022-11-07T16:48:50.460Z,91.94
2022-11-07T16:51:22.407Z,91.91
2022-11-07T16:53:51.072Z,92.30
2022-11-07T16:56:25.640Z,93.28
2022-11-07T16:58:55.885Z,92.93
2022-11-07T17:01:25.748Z,93.82
2022-11-07T17:03:59.456Z,94.00
2022-11-07T17:06:31.354Z,94.43
2022-11-07T17:09:07.480Z,95.75
2022-11-07T17:11:40.518Z,95.37
2022-11-07T17:14:10.249Z,96.10
2022-11-07T17:16:39.362Z,97.34
2022-11-07T17:19:08.129Z,96.13
2022-11-07T17:21:40.735Z,96.86
2022-11-07T17:24:10.618Z,97.18
2022-11-07T17:26:39.219Z,98.05
2022-11-07T17:29:13.083Z,97.45
2022-11-07T17:31:42.237Z,98.34
2022-11-07T17:34:11.245Z,98.79
2022-11-07T17:36:46.010Z,99.09
2022-11-07T17:39:17.059Z,99.91
2022-11-07T17:41:47.264Z,100.00
2022-11-07T17:44:17.834Z,99.60
2022-11-07T17:46:48.722Z,99.49
2022-11-07T17:49:19.891Z,98.52
2022-11-07T17:51:48.146Z,98.65
2022-11-07T17:54:16.888Z,99.78
2022-11-07T17:56:45.196Z,99.21
2022-11-07T17:59:17.170Z,99.64
2022-11-07T18:01:46.178Z,98.93
2022-11-07T18:04:14.838Z,98.15
2022-11-07T18:06:44.660Z,99.50
2022-11-07T18:09:16.358Z,99.15
2022-11-07T18:11:45.276Z,98.32
2022-11-07T18:14:16.207Z,98.72
2022-11-07T18:16:44.458Z,98.24
2022-11-07T18:19:12.763Z,97.79
2022-11-07T18:21:41.025Z,98.36
2022-11-07T18:24:10.102Z,99.00
2022-11-07T18:26:38.826Z,98.39
2022-11-07T18:29:10.027Z,98.14
2022-11-07T18:31:41.719Z,98.17
2022-11-07T18:34:13.613Z,97.62
2022-11-07T18:36:45.884Z,97.87
2022-11-07T18:39:17.664Z,97.71
2022-11-07T18:41:46.435Z,98.07
2022-11-07T18:44:15.158Z,98.35
2022-11-07T18:46:44.981Z,97.88
2022-11-07T18:49:15.363Z,97.89
2022-11-07T18:51:44.067Z,97.39
2022-11-07T18:54:14.139Z,98.75
2022-11-07T18:56:42.874Z,98.79
2022-11-07T18:59:11.746Z,98.07
2022-11-07T19:01:40.501Z,97.45
2022-11-07T19:04:12.918Z,97.91
2022-11-07T19:06:55.741Z,97.73
2022-11-07T19:09:26.862Z,98.05
2022-11-07T19:11:55.435Z,98.53
2022-11-07T19:14:23.865Z,98.58
2022-11-07T19:16:52.386Z,99.14
2022-11-07T19:19:22.636Z,98.72
2022-11-07T19:21:51.744Z,98.72
2022-11-07T19:24:20.124Z,99.27
2022-11-07T19:26:48.449Z,98.40
2022-11-07T19:29:16.890Z,98.27
2022-11-07T19:31:45.195Z,98.89
2022-11-07T19:34:13.448Z,99.24
2022-11-07T19:36:43.913Z,99.53
2022-11-07T19:39:12.257Z,99.41
2022-11-07T19:41:40.556Z,99.75
2022-11-07T19:44:09.183Z,100.00
2022-11-07T19:46:37.707Z,100.00
2022-11-07T19:49:05.929Z,100.00
2022-11-07T19:51:34.848Z,100.00
2022-11-07T19:54:06.963Z,100.00
2022-11-07T19:56:35.300Z,100.00
2022-11-07T19:59:03.845Z,100.00
2022-11-07T20:01:34.729Z,100.00
2022-11-07T20:04:04.090Z,100.00
2022-11-07T20:06:36.488Z,100.00
2022-11-07T20:09:07.669Z,100.00
2022-11-07T20:11:36.074Z,100.00
2022-11-07T20:14:04.625Z,100.00
2022-11-07T20:16:34.877Z,100.00
2022-11-07T20:19:03.644Z,100.00
2022-11-07T20:21:34.551Z,100.00
2022-11-07T20:24:02.925Z,100.00
2022-11-07T20:26:33.637Z,100.00
2022-11-07T20:29:02.424Z,100.00
2022-11-07T20:31:33.779Z,100.00
2022-11-07T20:34:05.629Z,100.00
2022-11-07T20:36:34.426Z,100.00
2022-11-07T20:39:03.931Z,100.00
2022-11-07T20:41:34.287Z,100.00
2022-11-07T20:44:05.767Z,100.00
2022-11-07T20:46:36.931Z,100.00
2022-11-07T20:49:08.743Z,100.00
2022-11-07T20:51:37.184Z,100.00
2022-11-07T20:54:06.049Z,100.00
2022-11-07T20:56:35.689Z,100.00
2022-11-07T20:59:03.956Z,100.00
2022-11-07T21:01:36.466Z,100.00
2022-11-07T21:04:16.383Z,100.00
2022-11-07T21:06:44.882Z,100.00
2022-11-07T21:09:13.399Z,100.00
2022-11-07T21:11:43.155Z,100.00
2022-11-07T21:14:11.931Z,100.00
2022-11-07T21:16:40.180Z,100.00
2022-11-07T21:19:09.404Z,100.00
2022-11-07T21:21:37.690Z,100.00
2022-11-07T21:24:07.064Z,100.00
2022-11-07T21:26:38.967Z,100.00
2022-11-07T21:29:11.011Z,100.00
2022-11-07T21:31:41.598Z,100.00
2022-11-07T21:34:11.562Z,100.00
2022-11-07T21:36:39.882Z,100.00
2022-11-07T21:39:08.591Z,100.00
2022-11-07T21:41:38.190Z,100.00
2022-11-07T21:44:07.992Z,100.00
2022-11-07T21:46:36.244Z,100.00
2022-11-07T21:49:06.154Z,100.00
2022-11-07T21:51:37.877Z,100.00
2022-11-07T21:54:07.384Z,100.00
2022-11-07T21:56:38.414Z,100.00
2022-11-07T21:59:11.056Z,100.00
2022-11-07T22:01:41.091Z,100.00
2022-11-07T22:04:13.272Z,100.00
2022-11-07T22:06:44.941Z,100.00
2022-11-07T22:09:15.621Z,100.00
2022-11-07T22:11:44.469Z,100.00
2022-11-07T22:14:16.105Z,100.00
2022-11-07T22:16:44.413Z,100.00
2022-11-07T22:19:13.297Z,100.00
2022-11-07T22:21:42.290Z,100.00
2022-11-07T22:24:11.335Z,100.00
2022-11-07T22:26:39.669Z,100.00
2022-11-07T22:29:07.977Z,100.00
2022-11-07T22:31:37.656Z,100.00
2022-11-07T22:34:06.028Z,100.00
2022-11-07T22:36:34.300Z,100.00
2022-11-07T22:39:02.638Z,100.00
2022-11-07T22:41:30.948Z,100.00
2022-11-07T22:43:59.683Z,100.00
2022-11-07T22:46:30.925Z,100.00
2022-11-07T22:49:01.470Z,100.00
2022-11-07T22:51:32.388Z,100.00
2022-11-07T22:54:03.073Z,100.00
2022-11-07T22:56:32.187Z,100.00
2022-11-07T22:59:00.916Z,100.00
2022-11-07T23:01:31.941Z,100.00
2022-11-07T23:04:02.270Z,100.00
2022-11-07T23:06:55.759Z,100.00
2022-11-07T23:09:24.035Z,100.00
2022-11-07T23:11:52.300Z,100.00
2022-11-07T23:14:25.468Z,100.00
2022-11-07T23:16:56.103Z,100.00
2022-11-07T23:19:27.435Z,100.00
2022-11-07T23:21:57.433Z,100.00
2022-11-07T23:24:25.876Z,100.00
2022-11-07T23:26:54.207Z,100.00
2022-11-07T23:29:25.269Z,100.00
2022-11-07T23:31:54.318Z,100.00
2022-11-07T23:34:25.931Z,100.00
2022-11-07T23:36:54.429Z,100.00
2022-11-07T23:39:25.940Z,100.00
2022-11-07T23:41:54.364Z,100.00
2022-11-07T23:44:22.774Z,100.00
2022-11-07T23:47:08.556Z,100.00
2022-11-07T23:49:52.045Z,100.00
2022-11-07T23:52:20.525Z,100.00
2022-11-07T23:55:06.903Z,100.00
2022-11-07T23:57:55.978Z,100.00
